sensor_id;sensor_type;location;lat;lon;timestamp;pressure;altitude;pressure_sealevel;temperature;humidity
11880;BME280;5999;43.256;27.816;2022-08-21T00:00:09;99603.38;;;25.63;100.00
11880;BME280;5999;43.256;27.816;2022-08-21T00:02:37;99614.66;;;25.67;100.00
11880;BME280;5999;43.256;27.816;2022-08-21T00:05:05;99616.69;;;25.65;100.00
11880;BME280;5999;43.256;27.816;2022-08-21T00:07:32;99609.25;;;25.67;100.00
11880;BME280;5999;43.256;27.816;2022-08-21T00:09:59;99610.09;;;25.67;100.00
11880;BME280;5999;43.256;27.816;2022-08-21T00:12:26;99609.25;;;25.67;100.00
11880;BME280;5999;43.256;27.816;2022-08-21T00:14:53;99611.13;;;25.66;100.00
11880;BME280;5999;43.256;27.816;2022-08-21T00:17:21;99607.56;;;25.66;100.00
11880;BME280;5999;43.256;27.816;2022-08-21T00:19:49;99611.66;;;25.62;100.00
11880;BME280;5999;43.256;27.816;2022-08-21T00:22:17;99607.13;;;25.62;100.00
11880;BME280;5999;43.256;27.816;2022-08-21T00:24:44;99606.25;;;25.62;100.00
11880;BME280;5999;43.256;27.816;2022-08-21T00:27:10;99605.06;;;25.64;100.00
11880;BME280;5999;43.256;27.816;2022-08-21T00:29:37;99609.34;;;25.59;100.00
11880;BME280;5999;43.256;27.816;2022-08-21T00:32:05;99612.03;;;25.59;100.00
11880;BME280;5999;43.256;27.816;2022-08-21T00:34:32;99620.69;;;25.54;100.00
11880;BME280;5999;43.256;27.816;2022-08-21T00:36:59;99619.16;;;25.52;100.00
11880;BME280;5999;43.256;27.816;2022-08-21T00:39:26;99614.06;;;25.57;100.00
11880;BME280;5999;43.256;27.816;2022-08-21T00:41:53;99610.72;;;25.55;100.00
11880;BME280;5999;43.256;27.816;2022-08-21T00:44:20;99597.81;;;25.50;100.00
11880;BME280;5999;43.256;27.816;2022-08-21T00:46:47;99606.88;;;25.49;100.00
11880;BME280;5999;43.256;27.816;2022-08-21T00:49:14;99609.03;;;25.54;100.00
11880;BME280;5999;43.256;27.816;2022-08-21T00:51:47;99597.59;;;25.52;100.00
11880;BME280;5999;43.256;27.816;2022-08-21T00:54:16;99614.16;;;25.49;100.00
11880;BME280;5999;43.256;27.816;2022-08-21T00:56:43;99613.84;;;25.43;100.00
11880;BME280;5999;43.256;27.816;2022-08-21T00:59:10;99603.91;;;25.44;100.00
11880;BME280;5999;43.256;27.816;2022-08-21T01:01:37;99609.16;;;25.37;100.00
11880;BME280;5999;43.256;27.816;2022-08-21T01:04:04;99602.13;;;25.36;100.00
11880;BME280;5999;43.256;27.816;2022-08-21T01:06:31;99602.13;;;25.36;100.00
11880;BME280;5999;43.256;27.816;2022-08-21T01:08:59;99607.03;;;25.33;100.00
11880;BME280;5999;43.256;27.816;2022-08-21T01:11:26;99602.03;;;25.30;100.00
11880;BME280;5999;43.256;27.816;2022-08-21T01:13:53;99604.50;;;25.31;100.00
11880;BME280;5999;43.256;27.816;2022-08-21T01:16:22;99619.00;;;25.30;100.00
11880;BME280;5999;43.256;27.816;2022-08-21T01:18:49;99613.97;;;25.27;100.00
11880;BME280;5999;43.256;27.816;2022-08-21T01:21:18;99612.31;;;25.26;100.00
11880;BME280;5999;43.256;27.816;2022-08-21T01:23:49;99612.78;;;25.30;100.00
11880;BME280;5999;43.256;27.816;2022-08-21T01:26:18;99614.28;;;25.32;100.00
11880;BME280;5999;43.256;27.816;2022-08-21T01:28:49;99609.56;;;25.34;100.00
11880;BME280;5999;43.256;27.816;2022-08-21T01:31:20;99619.13;;;25.37;100.00
11880;BME280;5999;43.256;27.816;2022-08-21T01:33:49;99619.59;;;25.40;100.00
11880;BME280;5999;43.256;27.816;2022-08-21T01:36:16;99622.97;;;25.42;100.00
11880;BME280;5999;43.256;27.816;2022-08-21T01:38:43;99615.53;;;25.44;100.00
11880;BME280;5999;43.256;27.816;2022-08-21T01:41:10;99619.81;;;25.54;100.00
11880;BME280;5999;43.256;27.816;2022-08-21T01:43:37;99617.31;;;25.52;100.00
11880;BME280;5999;43.256;27.816;2022-08-21T01:46:04;99617.78;;;25.56;100.00
11880;BME280;5999;43.256;27.816;2022-08-21T01:48:31;99611.06;;;25.52;100.00
11880;BME280;5999;43.256;27.816;2022-08-21T01:50:58;99600.94;;;25.54;100.00
11880;BME280;5999;43.256;27.816;2022-08-21T01:53:26;99598.63;;;25.51;100.00
11880;BME280;5999;43.256;27.816;2022-08-21T01:55:53;99591.84;;;25.55;100.00
11880;BME280;5999;43.256;27.816;2022-08-21T01:58:20;99592.84;;;25.54;100.00
11880;BME280;5999;43.256;27.816;2022-08-21T02:00:47;99599.47;;;25.51;100.00
11880;BME280;5999;43.256;27.816;2022-08-21T02:03:15;99602.72;;;25.46;100.00
11880;BME280;5999;43.256;27.816;2022-08-21T02:05:42;99605.81;;;25.35;100.00
11880;BME280;5999;43.256;27.816;2022-08-21T02:08:09;99613.56;;;25.38;100.00
11880;BME280;5999;43.256;27.816;2022-08-21T02:10:36;99608.97;;;25.24;100.00
11880;BME280;5999;43.256;27.816;2022-08-21T02:13:03;99604.97;;;25.12;100.00
11880;BME280;5999;43.256;27.816;2022-08-21T02:15:31;99610.44;;;25.03;100.00
11880;BME280;5999;43.256;27.816;2022-08-21T02:17:59;99619.56;;;24.94;100.00
11880;BME280;5999;43.256;27.816;2022-08-21T02:20:29;99633.09;;;24.86;100.00
11880;BME280;5999;43.256;27.816;2022-08-21T02:22:56;99643.84;;;24.86;100.00
11880;BME280;5999;43.256;27.816;2022-08-21T02:25:25;99645.53;;;24.87;100.00
11880;BME280;5999;43.256;27.816;2022-08-21T02:27:53;99645.22;;;24.82;100.00
11880;BME280;5999;43.256;27.816;2022-08-21T02:30:23;99660.38;;;24.83;100.00
11880;BME280;5999;43.256;27.816;2022-08-21T02:32:50;99662.13;;;24.67;100.00
11880;BME280;5999;43.256;27.816;2022-08-21T02:35:18;99671.22;;;24.66;100.00
11880;BME280;5999;43.256;27.816;2022-08-21T02:37:51;99689.03;;;24.67;100.00
11880;BME280;5999;43.256;27.816;2022-08-21T02:40:22;99695.78;;;24.63;100.00
11880;BME280;5999;43.256;27.816;2022-08-21T02:42:50;99705.53;;;24.73;100.00
11880;BME280;5999;43.256;27.816;2022-08-21T02:45:18;99705.69;;;24.71;100.00
11880;BME280;5999;43.256;27.816;2022-08-21T02:47:48;99706.19;;;24.75;100.00
11880;BME280;5999;43.256;27.816;2022-08-21T02:50:18;99704.16;;;24.77;100.00
11880;BME280;5999;43.256;27.816;2022-08-21T02:52:45;99711.56;;;24.75;100.00
11880;BME280;5999;43.256;27.816;2022-08-21T02:55:13;99711.91;;;24.72;100.00
11880;BME280;5999;43.256;27.816;2022-08-21T02:57:40;99716.25;;;24.81;100.00
11880;BME280;5999;43.256;27.816;2022-08-21T03:00:09;99718.06;;;24.89;100.00
11880;BME280;5999;43.256;27.816;2022-08-21T03:02:38;99716.69;;;24.93;100.00
11880;BME280;5999;43.256;27.816;2022-08-21T03:05:06;99723.22;;;24.98;100.00
11880;BME280;5999;43.256;27.816;2022-08-21T03:07:33;99721.91;;;24.94;100.00
11880;BME280;5999;43.256;27.816;2022-08-21T03:10:00;99722.59;;;24.88;100.00
11880;BME280;5999;43.256;27.816;2022-08-21T03:12:27;99723.47;;;24.80;100.00
11880;BME280;5999;43.256;27.816;2022-08-21T03:14:54;99730.72;;;24.80;100.00
11880;BME280;5999;43.256;27.816;2022-08-21T03:17:21;99731.88;;;24.85;100.00
11880;BME280;5999;43.256;27.816;2022-08-21T03:19:48;99735.91;;;24.90;100.00
11880;BME280;5999;43.256;27.816;2022-08-21T03:22:15;99733.38;;;24.88;100.00
11880;BME280;5999;43.256;27.816;2022-08-21T03:24:43;99737.56;;;24.91;100.00
11880;BME280;5999;43.256;27.816;2022-08-21T03:27:11;99739.09;;;24.93;100.00
11880;BME280;5999;43.256;27.816;2022-08-21T03:29:39;99733.66;;;25.01;100.00
11880;BME280;5999;43.256;27.816;2022-08-21T03:32:06;99737.34;;;25.00;100.00
11880;BME280;5999;43.256;27.816;2022-08-21T03:34:35;99750.66;;;25.02;100.00
11880;BME280;5999;43.256;27.816;2022-08-21T03:37:03;99748.13;;;25.00;100.00
11880;BME280;5999;43.256;27.816;2022-08-21T03:39:30;99753.88;;;24.97;100.00
11880;BME280;5999;43.256;27.816;2022-08-21T03:41:57;99758.69;;;25.10;100.00
11880;BME280;5999;43.256;27.816;2022-08-21T03:44:24;99754.63;;;25.14;100.00
11880;BME280;5999;43.256;27.816;2022-08-21T03:46:51;99736.31;;;25.10;100.00
11880;BME280;5999;43.256;27.816;2022-08-21T03:49:18;99740.31;;;25.22;100.00
11880;BME280;5999;43.256;27.816;2022-08-21T03:51:45;99746.66;;;25.29;100.00
11880;BME280;5999;43.256;27.816;2022-08-21T03:54:13;99734.09;;;25.21;100.00
11880;BME280;5999;43.256;27.816;2022-08-21T03:56:40;99736.91;;;25.28;100.00
11880;BME280;5999;43.256;27.816;2022-08-21T03:59:07;99735.19;;;25.35;100.00
11880;BME280;5999;43.256;27.816;2022-08-21T04:01:34;99729.56;;;25.45;100.00
11880;BME280;5999;43.256;27.816;2022-08-21T04:04:01;99722.78;;;25.49;100.00
11880;BME280;5999;43.256;27.816;2022-08-21T04:06:28;99720.59;;;25.53;100.00
11880;BME280;5999;43.256;27.816;2022-08-21T04:08:55;99718.88;;;25.52;100.00
11880;BME280;5999;43.256;27.816;2022-08-21T04:11:23;99711.06;;;25.65;100.00
11880;BME280;5999;43.256;27.816;2022-08-21T04:13:50;99715.41;;;25.66;100.00
11880;BME280;5999;43.256;27.816;2022-08-21T04:16:17;99711.16;;;25.72;100.00
11880;BME280;5999;43.256;27.816;2022-08-21T04:18:45;99709.88;;;25.82;100.00
11880;BME280;5999;43.256;27.816;2022-08-21T04:21:12;99702.59;;;25.91;100.00
11880;BME280;5999;43.256;27.816;2022-08-21T04:23:39;99704.38;;;25.99;100.00
11880;BME280;5999;43.256;27.816;2022-08-21T04:26:06;99703.63;;;26.05;100.00
11880;BME280;5999;43.256;27.816;2022-08-21T04:28:34;99698.97;;;25.99;100.00
11880;BME280;5999;43.256;27.816;2022-08-21T04:31:01;99698.38;;;26.12;100.00
11880;BME280;5999;43.256;27.816;2022-08-21T04:33:30;99696.03;;;26.23;100.00
11880;BME280;5999;43.256;27.816;2022-08-21T04:35:57;99697.91;;;26.38;100.00
11880;BME280;5999;43.256;27.816;2022-08-21T04:38:24;99679.69;;;26.40;100.00
11880;BME280;5999;43.256;27.816;2022-08-21T04:40:52;99674.44;;;26.53;100.00
11880;BME280;5999;43.256;27.816;2022-08-21T04:43:19;99666.38;;;26.38;100.00
11880;BME280;5999;43.256;27.816;2022-08-21T04:45:49;99666.72;;;26.35;100.00
11880;BME280;5999;43.256;27.816;2022-08-21T04:48:17;99671.09;;;26.51;100.00
11880;BME280;5999;43.256;27.816;2022-08-21T04:50:49;99663.75;;;26.45;100.00
11880;BME280;5999;43.256;27.816;2022-08-21T04:53:19;99670.09;;;26.67;100.00
11880;BME280;5999;43.256;27.816;2022-08-21T04:55:47;99660.38;;;25.37;100.00
11880;BME280;5999;43.256;27.816;2022-08-21T04:58:17;99690.56;;;24.62;100.00
11880;BME280;5999;43.256;27.816;2022-08-21T05:00:45;99696.16;;;24.92;100.00
11880;BME280;5999;43.256;27.816;2022-08-21T05:03:15;99701.47;;;25.39;100.00
11880;BME280;5999;43.256;27.816;2022-08-21T05:05:43;99701.53;;;25.54;100.00
11880;BME280;5999;43.256;27.816;2022-08-21T05:08:13;99724.53;;;23.99;100.00
11880;BME280;5999;43.256;27.816;2022-08-21T05:10:42;99738.25;;;24.29;100.00
11880;BME280;5999;43.256;27.816;2022-08-21T05:13:11;99741.75;;;24.54;100.00
11880;BME280;5999;43.256;27.816;2022-08-21T05:15:39;99748.47;;;24.41;100.00
11880;BME280;5999;43.256;27.816;2022-08-21T05:18:06;99755.03;;;24.47;100.00
11880;BME280;5999;43.256;27.816;2022-08-21T05:20:34;99767.22;;;24.82;100.00
11880;BME280;5999;43.256;27.816;2022-08-21T05:23:05;99757.66;;;24.80;100.00
11880;BME280;5999;43.256;27.816;2022-08-21T05:25:34;99745.03;;;25.20;100.00
11880;BME280;5999;43.256;27.816;2022-08-21T05:28:01;99740.38;;;25.91;100.00
11880;BME280;5999;43.256;27.816;2022-08-21T05:30:28;99718.09;;;26.27;100.00
11880;BME280;5999;43.256;27.816;2022-08-21T05:32:57;99709.56;;;26.83;100.00
11880;BME280;5999;43.256;27.816;2022-08-21T05:35:24;99704.91;;;27.28;100.00
11880;BME280;5999;43.256;27.816;2022-08-21T05:37:52;99682.34;;;27.64;100.00
11880;BME280;5999;43.256;27.816;2022-08-21T05:40:19;99663.69;;;28.25;100.00
11880;BME280;5999;43.256;27.816;2022-08-21T05:42:45;99636.91;;;28.44;100.00
11880;BME280;5999;43.256;27.816;2022-08-21T05:45:13;99609.63;;;28.39;100.00
11880;BME280;5999;43.256;27.816;2022-08-21T05:47:40;99610.94;;;28.56;100.00
11880;BME280;5999;43.256;27.816;2022-08-21T05:50:07;99602.69;;;28.71;100.00
11880;BME280;5999;43.256;27.816;2022-08-21T05:52:34;99602.19;;;28.13;100.00
11880;BME280;5999;43.256;27.816;2022-08-21T05:55:02;99610.50;;;27.27;100.00
11880;BME280;5999;43.256;27.816;2022-08-21T05:57:29;99609.88;;;28.09;100.00
11880;BME280;5999;43.256;27.816;2022-08-21T05:59:56;99591.41;;;28.68;100.00
11880;BME280;5999;43.256;27.816;2022-08-21T06:02:23;99584.47;;;29.27;100.00
11880;BME280;5999;43.256;27.816;2022-08-21T06:04:50;99564.84;;;29.31;100.00
11880;BME280;5999;43.256;27.816;2022-08-21T06:07:17;99555.41;;;29.94;100.00
11880;BME280;5999;43.256;27.816;2022-08-21T06:09:44;99540.66;;;29.30;100.00
11880;BME280;5999;43.256;27.816;2022-08-21T06:12:12;99544.38;;;28.34;100.00
11880;BME280;5999;43.256;27.816;2022-08-21T06:14:40;99541.69;;;28.95;100.00
11880;BME280;5999;43.256;27.816;2022-08-21T06:17:09;99538.91;;;30.02;100.00
11880;BME280;5999;43.256;27.816;2022-08-21T06:19:36;99541.84;;;29.94;100.00
11880;BME280;5999;43.256;27.816;2022-08-21T06:22:03;99528.88;;;30.86;100.00
11880;BME280;5999;43.256;27.816;2022-08-21T06:24:31;99518.34;;;30.26;100.00
11880;BME280;5999;43.256;27.816;2022-08-21T06:27:03;99505.63;;;30.58;100.00
11880;BME280;5999;43.256;27.816;2022-08-21T06:29:30;99494.66;;;30.40;100.00
11880;BME280;5999;43.256;27.816;2022-08-21T06:31:58;99516.03;;;29.51;100.00
11880;BME280;5999;43.256;27.816;2022-08-21T06:34:25;99521.75;;;30.08;100.00
11880;BME280;5999;43.256;27.816;2022-08-21T06:36:52;99503.06;;;31.02;100.00
11880;BME280;5999;43.256;27.816;2022-08-21T06:39:19;99485.44;;;31.73;100.00
11880;BME280;5999;43.256;27.816;2022-08-21T06:41:46;99479.72;;;32.60;100.00
11880;BME280;5999;43.256;27.816;2022-08-21T06:44:15;99475.69;;;33.29;100.00
11880;BME280;5999;43.256;27.816;2022-08-21T06:46:43;99471.50;;;33.73;96.70
11880;BME280;5999;43.256;27.816;2022-08-21T06:49:10;99470.91;;;34.24;89.89
11880;BME280;5999;43.256;27.816;2022-08-21T06:51:36;99484.78;;;34.51;86.68
11880;BME280;5999;43.256;27.816;2022-08-21T06:54:03;99483.38;;;34.77;79.41
11880;BME280;5999;43.256;27.816;2022-08-21T06:56:30;99485.84;;;34.95;76.07
11880;BME280;5999;43.256;27.816;2022-08-21T06:58:59;99482.91;;;35.70;71.92
11880;BME280;5999;43.256;27.816;2022-08-21T07:01:26;99483.09;;;36.07;70.16
11880;BME280;5999;43.256;27.816;2022-08-21T07:03:54;99487.81;;;36.39;64.99
11880;BME280;5999;43.256;27.816;2022-08-21T07:06:21;99486.91;;;36.28;67.50
11880;BME280;5999;43.256;27.816;2022-08-21T07:08:48;99484.19;;;35.11;62.56
11880;BME280;5999;43.256;27.816;2022-08-21T07:11:19;99488.97;;;34.25;74.27
11880;BME280;5999;43.256;27.816;2022-08-21T07:13:46;99478.28;;;34.23;77.47
11880;BME280;5999;43.256;27.816;2022-08-21T07:16:14;99482.13;;;34.68;73.27
11880;BME280;5999;43.256;27.816;2022-08-21T07:18:41;99478.81;;;35.33;70.68
11880;BME280;5999;43.256;27.816;2022-08-21T07:21:09;99480.25;;;35.19;68.76
11880;BME280;5999;43.256;27.816;2022-08-21T07:23:38;99481.31;;;34.84;66.50
11880;BME280;5999;43.256;27.816;2022-08-21T07:26:06;99477.31;;;34.75;67.26
11880;BME280;5999;43.256;27.816;2022-08-21T07:28:33;99470.84;;;34.35;69.52
11880;BME280;5999;43.256;27.816;2022-08-21T07:31:01;99468.66;;;34.20;66.33
11880;BME280;5999;43.256;27.816;2022-08-21T07:33:30;99466.31;;;33.36;70.07
11880;BME280;5999;43.256;27.816;2022-08-21T07:35:58;99464.22;;;32.42;79.73
11880;BME280;5999;43.256;27.816;2022-08-21T07:38:26;99460.03;;;32.58;79.92
11880;BME280;5999;43.256;27.816;2022-08-21T07:40:55;99461.06;;;32.99;78.73
11880;BME280;5999;43.256;27.816;2022-08-21T07:43:23;99462.56;;;31.37;99.27
11880;BME280;5999;43.256;27.816;2022-08-21T07:45:49;99452.72;;;32.40;96.28
11880;BME280;5999;43.256;27.816;2022-08-21T07:48:17;99451.59;;;33.37;92.11
11880;BME280;5999;43.256;27.816;2022-08-21T07:50:44;99448.09;;;33.77;84.62
11880;BME280;5999;43.256;27.816;2022-08-21T07:53:11;99444.59;;;33.18;94.04
11880;BME280;5999;43.256;27.816;2022-08-21T07:55:38;99446.41;;;32.28;94.72
11880;BME280;5999;43.256;27.816;2022-08-21T07:58:05;99444.44;;;31.68;99.21
11880;BME280;5999;43.256;27.816;2022-08-21T08:00:33;99445.75;;;31.22;100.00
11880;BME280;5999;43.256;27.816;2022-08-21T08:03:00;99448.59;;;32.80;100.00
11880;BME280;5999;43.256;27.816;2022-08-21T08:05:30;99444.63;;;31.55;99.14
11880;BME280;5999;43.256;27.816;2022-08-21T08:07:57;99444.03;;;31.28;100.00
11880;BME280;5999;43.256;27.816;2022-08-21T08:10:24;99443.19;;;31.27;100.00
11880;BME280;5999;43.256;27.816;2022-08-21T08:12:52;99438.16;;;31.31;100.00
11880;BME280;5999;43.256;27.816;2022-08-21T08:15:23;99435.97;;;30.39;100.00
11880;BME280;5999;43.256;27.816;2022-08-21T08:17:50;99438.63;;;30.77;100.00
11880;BME280;5999;43.256;27.816;2022-08-21T08:20:18;99435.50;;;31.42;100.00
11880;BME280;5999;43.256;27.816;2022-08-21T08:22:46;99441.53;;;30.76;100.00
11880;BME280;5999;43.256;27.816;2022-08-21T08:25:14;99438.41;;;31.04;100.00
11880;BME280;5999;43.256;27.816;2022-08-21T08:27:41;99435.47;;;31.49;100.00
11880;BME280;5999;43.256;27.816;2022-08-21T08:30:12;99441.53;;;30.76;100.00
11880;BME280;5999;43.256;27.816;2022-08-21T08:32:40;99443.53;;;30.62;100.00
11880;BME280;5999;43.256;27.816;2022-08-21T08:35:08;99442.91;;;30.92;100.00
11880;BME280;5999;43.256;27.816;2022-08-21T08:37:36;99440.22;;;30.21;100.00
11880;BME280;5999;43.256;27.816;2022-08-21T08:40:05;99430.47;;;31.02;100.00
11880;BME280;5999;43.256;27.816;2022-08-21T08:42:34;99419.06;;;30.62;100.00
11880;BME280;5999;43.256;27.816;2022-08-21T08:45:06;99423.78;;;30.48;100.00
11880;BME280;5999;43.256;27.816;2022-08-21T08:47:37;99421.03;;;30.16;100.00
11880;BME280;5999;43.256;27.816;2022-08-21T08:50:07;99412.81;;;29.91;100.00
11880;BME280;5999;43.256;27.816;2022-08-21T08:52:40;99434.50;;;29.91;100.00
11880;BME280;5999;43.256;27.816;2022-08-21T08:55:13;99417.63;;;30.28;100.00
11880;BME280;5999;43.256;27.816;2022-08-21T08:57:44;99412.97;;;30.41;100.00
11880;BME280;5999;43.256;27.816;2022-08-21T09:00:15;99413.28;;;30.20;100.00
11880;BME280;5999;43.256;27.816;2022-08-21T09:02:44;99423.66;;;29.98;100.00
11880;BME280;5999;43.256;27.816;2022-08-21T09:05:23;99409.84;;;30.38;100.00
11880;BME280;5999;43.256;27.816;2022-08-21T09:08:01;99408.91;;;29.80;100.00
11880;BME280;5999;43.256;27.816;2022-08-21T09:10:42;99411.94;;;29.97;100.00
11880;BME280;5999;43.256;27.816;2022-08-21T09:13:38;99408.72;;;30.77;100.00
11880;BME280;5999;43.256;27.816;2022-08-21T09:16:16;99398.06;;;30.76;100.00
11880;BME280;5999;43.256;27.816;2022-08-21T09:18:54;99401.00;;;30.49;100.00
11880;BME280;5999;43.256;27.816;2022-08-21T09:21:31;99401.81;;;30.75;100.00
11880;BME280;5999;43.256;27.816;2022-08-21T09:24:16;99387.13;;;31.08;100.00
11880;BME280;5999;43.256;27.816;2022-08-21T09:26:49;99393.63;;;30.24;100.00
11880;BME280;5999;43.256;27.816;2022-08-21T09:29:21;99379.22;;;30.24;100.00
11880;BME280;5999;43.256;27.816;2022-08-21T09:31:50;99381.97;;;30.49;100.00
11880;BME280;5999;43.256;27.816;2022-08-21T09:34:26;99377.00;;;31.15;100.00
11880;BME280;5999;43.256;27.816;2022-08-21T09:36:54;99374.81;;;31.42;100.00
11880;BME280;5999;43.256;27.816;2022-08-21T09:39:25;99372.84;;;30.87;100.00
11880;BME280;5999;43.256;27.816;2022-08-21T09:41:57;99372.72;;;30.57;100.00
11880;BME280;5999;43.256;27.816;2022-08-21T09:44:27;99364.47;;;31.32;100.00
11880;BME280;5999;43.256;27.816;2022-08-21T09:46:55;99353.13;;;31.72;100.00
11880;BME280;5999;43.256;27.816;2022-08-21T09:49:30;99360.50;;;30.91;100.00
11880;BME280;5999;43.256;27.816;2022-08-21T09:51:58;99349.34;;;30.99;100.00
11880;BME280;5999;43.256;27.816;2022-08-21T09:54:29;99356.34;;;30.89;100.00
11880;BME280;5999;43.256;27.816;2022-08-21T09:56:59;99345.75;;;31.61;100.00
11880;BME280;5999;43.256;27.816;2022-08-21T09:59:46;99351.16;;;31.24;100.00
11880;BME280;5999;43.256;27.816;2022-08-21T10:02:26;99347.56;;;31.67;95.68
11880;BME280;5999;43.256;27.816;2022-08-21T10:04:56;99324.84;;;31.73;96.67
11880;BME280;5999;43.256;27.816;2022-08-21T10:07:25;99342.09;;;31.30;100.00
11880;BME280;5999;43.256;27.816;2022-08-21T10:10:01;99344.28;;;31.40;99.34
11880;BME280;5999;43.256;27.816;2022-08-21T10:12:38;99356.97;;;30.66;100.00
11880;BME280;5999;43.256;27.816;2022-08-21T10:15:16;99345.00;;;30.73;98.42
11880;BME280;5999;43.256;27.816;2022-08-21T10:17:55;99345.53;;;30.82;98.29
11880;BME280;5999;43.256;27.816;2022-08-21T10:20:35;99348.03;;;30.58;95.30
11880;BME280;5999;43.256;27.816;2022-08-21T10:23:14;99344.69;;;31.07;91.03
11880;BME280;5999;43.256;27.816;2022-08-21T10:25:50;99342.41;;;31.03;94.81
11880;BME280;5999;43.256;27.816;2022-08-21T10:28:25;99322.91;;;31.43;97.11
11880;BME280;5999;43.256;27.816;2022-08-21T10:31:00;99333.19;;;31.23;100.00
11880;BME280;5999;43.256;27.816;2022-08-21T10:33:35;99335.47;;;31.63;100.00
11880;BME280;5999;43.256;27.816;2022-08-21T10:36:12;99337.22;;;31.02;100.00
11880;BME280;5999;43.256;27.816;2022-08-21T10:41:41;99330.31;;;31.18;100.00
11880;BME280;5999;43.256;27.816;2022-08-21T10:44:22;99327.38;;;30.57;100.00
11880;BME280;5999;43.256;27.816;2022-08-21T10:46:56;99328.97;;;30.90;100.00
11880;BME280;5999;43.256;27.816;2022-08-21T10:49:38;99361.19;;;30.61;100.00
11880;BME280;5999;43.256;27.816;2022-08-21T10:52:27;99322.72;;;30.83;100.00
11880;BME280;5999;43.256;27.816;2022-08-21T10:55:00;99337.84;;;30.54;100.00
11880;BME280;5999;43.256;27.816;2022-08-21T10:57:33;99328.22;;;30.76;100.00
11880;BME280;5999;43.256;27.816;2022-08-21T11:00:06;99325.88;;;30.04;100.00
11880;BME280;5999;43.256;27.816;2022-08-21T11:02:38;99330.72;;;30.28;100.00
11880;BME280;5999;43.256;27.816;2022-08-21T11:05:12;99323.59;;;30.33;100.00
11880;BME280;5999;43.256;27.816;2022-08-21T11:07:51;99324.47;;;30.77;100.00
11880;BME280;5999;43.256;27.816;2022-08-21T11:10:23;99329.59;;;30.10;100.00
11880;BME280;5999;43.256;27.816;2022-08-21T11:12:54;99308.88;;;31.10;100.00
11880;BME280;5999;43.256;27.816;2022-08-21T11:15:33;99328.16;;;30.83;100.00
11880;BME280;5999;43.256;27.816;2022-08-21T11:18:19;99329.91;;;30.52;100.00
11880;BME280;5999;43.256;27.816;2022-08-21T11:20:54;99328.06;;;30.96;100.00
11880;BME280;5999;43.256;27.816;2022-08-21T11:23:31;99334.44;;;30.58;100.00
11880;BME280;5999;43.256;27.816;2022-08-21T11:26:04;99326.50;;;30.82;100.00
11880;BME280;5999;43.256;27.816;2022-08-21T11:28:37;99334.31;;;30.53;100.00
11880;BME280;5999;43.256;27.816;2022-08-21T11:31:16;99329.03;;;30.58;100.00
11880;BME280;5999;43.256;27.816;2022-08-21T11:33:57;99331.78;;;30.77;100.00
11880;BME280;5999;43.256;27.816;2022-08-21T11:36:36;99345.09;;;30.03;100.00
11880;BME280;5999;43.256;27.816;2022-08-21T11:39:16;99336.28;;;30.64;100.00
11880;BME280;5999;43.256;27.816;2022-08-21T11:41:54;99329.63;;;29.72;100.00
11880;BME280;5999;43.256;27.816;2022-08-21T11:44:33;99331.16;;;29.93;100.00
11880;BME280;5999;43.256;27.816;2022-08-21T11:47:09;99326.97;;;29.52;100.00
11880;BME280;5999;43.256;27.816;2022-08-21T11:49:57;99331.78;;;29.95;100.00
11880;BME280;5999;43.256;27.816;2022-08-21T11:52:32;99319.50;;;30.17;100.00
11880;BME280;5999;43.256;27.816;2022-08-21T11:55:05;99323.28;;;30.67;100.00
11880;BME280;5999;43.256;27.816;2022-08-21T11:57:39;99320.28;;;30.75;100.00
11880;BME280;5999;43.256;27.816;2022-08-21T12:00:16;99315.91;;;29.98;100.00
11880;BME280;5999;43.256;27.816;2022-08-21T12:02:49;99323.25;;;29.91;100.00
11880;BME280;5999;43.256;27.816;2022-08-21T12:05:29;99319.72;;;30.91;100.00
11880;BME280;5999;43.256;27.816;2022-08-21T12:08:05;99303.00;;;30.51;100.00
11880;BME280;5999;43.256;27.816;2022-08-21T12:10:36;99299.75;;;30.03;100.00
11880;BME280;5999;43.256;27.816;2022-08-21T12:13:10;99296.56;;;30.13;100.00
11880;BME280;5999;43.256;27.816;2022-08-21T12:15:38;99288.81;;;29.92;100.00
11880;BME280;5999;43.256;27.816;2022-08-21T12:18:18;99283.91;;;29.75;100.00
11880;BME280;5999;43.256;27.816;2022-08-21T12:21:00;99296.72;;;29.93;100.00
11880;BME280;5999;43.256;27.816;2022-08-21T12:23:29;99281.50;;;30.68;100.00
11880;BME280;5999;43.256;27.816;2022-08-21T12:26:20;99277.16;;;31.03;100.00
11880;BME280;5999;43.256;27.816;2022-08-21T12:28:49;99279.94;;;30.03;100.00
11880;BME280;5999;43.256;27.816;2022-08-21T12:31:26;99269.13;;;29.71;100.00
11880;BME280;5999;43.256;27.816;2022-08-21T12:33:58;99291.22;;;29.68;100.00
11880;BME280;5999;43.256;27.816;2022-08-21T12:36:42;99294.47;;;30.15;100.00
11880;BME280;5999;43.256;27.816;2022-08-21T12:39:13;99300.22;;;30.25;100.00
11880;BME280;5999;43.256;27.816;2022-08-21T12:41:49;99301.84;;;30.08;100.00
11880;BME280;5999;43.256;27.816;2022-08-21T12:44:21;99299.94;;;30.09;100.00
11880;BME280;5999;43.256;27.816;2022-08-21T12:46:53;99301.75;;;29.90;100.00
11880;BME280;5999;43.256;27.816;2022-08-21T12:49:27;99290.25;;;29.56;100.00
11880;BME280;5999;43.256;27.816;2022-08-21T12:52:00;99289.44;;;29.87;100.00
11880;BME280;5999;43.256;27.816;2022-08-21T12:54:30;99293.09;;;29.68;100.00
11880;BME280;5999;43.256;27.816;2022-08-21T12:56:59;99301.03;;;29.69;100.00
11880;BME280;5999;43.256;27.816;2022-08-21T12:59:30;99291.94;;;29.89;100.00
11880;BME280;5999;43.256;27.816;2022-08-21T13:01:59;99280.03;;;30.90;100.00
11880;BME280;5999;43.256;27.816;2022-08-21T13:04:35;99283.94;;;30.25;100.00
11880;BME280;5999;43.256;27.816;2022-08-21T13:07:06;99284.72;;;29.76;100.00